Time;durP1;ratioP1;P1;durP2;ratioP2;P2;SDS_P1;SDS_P2;PMS_P1;PMS_P2;Temp;Humidity;BMP_temperature;BMP_pressure;BME280_temperature;BME280_humidity;BME280_pressure;Samples;Min_cycle;Max_cycle;Signal;HPM_P1;HPM_P2
2023/07/19 00:00:15;;;;;;;4.38;2.42;;;;;;;19.96;46.73;100148.03;5089601;28;20231;-69
2023/07/19 00:02:43;;;;;;;5.55;3.03;;;;;;;19.96;46.44;100149.81;5085037;28;20226;-70
2023/07/19 00:05:11;;;;;;;6.55;2.72;;;;;;;19.92;46.05;100143.00;5082272;28;20232;-67
2023/07/19 00:07:40;;;;;;;3.75;2.60;;;;;;;19.92;45.84;100146.47;5084980;28;20637;-68
2023/07/19 00:10:09;;;;;;;4.43;2.60;;;;;;;19.91;45.95;100144.78;5084028;28;20204;-69
2023/07/19 00:12:39;;;;;;;5.07;2.20;;;;;;;19.92;46.25;100138.63;5091328;28;20211;-68
2023/07/19 00:15:23;;;;;;;4.63;2.63;;;;;;;19.90;45.40;100137.84;5083652;28;20211;-71
2023/07/19 00:17:51;;;;;;;5.15;2.58;;;;;;;19.88;45.37;100136.22;5092397;28;20250;-70
2023/07/19 00:20:19;;;;;;;6.22;2.60;;;;;;;19.89;46.88;100130.09;5089697;28;20215;-70
2023/07/19 00:22:49;;;;;;;3.65;2.30;;;;;;;19.89;47.19;100123.09;5092597;28;20242;-69
2023/07/19 00:25:17;;;;;;;3.67;2.40;;;;;;;19.88;47.83;100129.22;5090905;28;20598;-69
2023/07/19 00:27:48;;;;;;;6.18;2.50;;;;;;;19.85;47.97;100120.72;5079475;28;20233;-69
2023/07/19 00:30:17;;;;;;;5.00;2.42;;;;;;;19.82;49.30;100119.06;5079133;28;20658;-69
2023/07/19 00:32:45;;;;;;;4.57;2.53;;;;;;;19.77;49.23;100116.69;5088641;28;20204;-68
2023/07/19 00:35:15;;;;;;;6.32;2.92;;;;;;;19.74;48.58;100110.75;5076319;28;20270;-70
2023/07/19 00:37:44;;;;;;;5.90;2.42;;;;;;;19.73;47.79;100119.50;5082420;28;20232;-68
2023/07/19 00:40:13;;;;;;;4.03;2.08;;;;;;;19.70;46.60;100112.69;5091609;28;20196;-70
2023/07/19 00:42:41;;;;;;;5.38;2.80;;;;;;;19.70;46.15;100112.69;5082925;28;20213;-70
2023/07/19 00:45:10;;;;;;;3.55;1.98;;;;;;;19.70;45.67;100120.53;5093036;28;20204;-69
2023/07/19 00:47:39;;;;;;;3.90;2.17;;;;;;;19.70;45.64;100119.66;5091685;28;20200;-70
2023/07/19 00:50:08;;;;;;;3.88;2.22;;;;;;;19.71;45.69;100116.13;5062881;28;20207;-70
2023/07/19 00:52:36;;;;;;;5.70;2.88;;;;;;;19.69;46.34;100117.97;5091594;28;20243;-70
2023/07/19 00:55:04;;;;;;;6.15;2.38;;;;;;;19.64;47.12;100118.19;5091419;28;20215;-68
2023/07/19 00:57:35;;;;;;;5.97;2.38;;;;;;;19.62;47.70;100111.31;5086129;28;20213;-69
2023/07/19 01:00:04;;;;;;;4.07;2.17;;;;;;;19.57;48.22;100114.16;5089556;28;20231;-68
2023/07/19 01:02:33;;;;;;;5.97;2.20;;;;;;;19.56;47.37;100112.47;5091522;28;20208;-69
2023/07/19 01:05:01;;;;;;;12.57;2.45;;;;;;;19.56;46.88;100107.22;5091675;28;20652;-71
2023/07/19 01:07:29;;;;;;;4.28;2.53;;;;;;;19.57;48.06;100102.84;5087647;28;20192;-70
2023/07/19 01:09:57;;;;;;;3.17;2.17;;;;;;;19.55;49.12;100100.28;5092370;28;20208;-70
2023/07/19 01:12:26;;;;;;;5.38;2.53;;;;;;;19.53;48.65;100096.91;5087500;28;20251;-70
2023/07/19 01:14:55;;;;;;;4.10;2.47;;;;;;;19.53;49.09;100094.31;5086710;28;20204;-69
2023/07/19 01:17:23;;;;;;;4.75;2.38;;;;;;;19.48;50.20;100098.91;5091950;28;20223;-69
2023/07/19 01:19:52;;;;;;;7.07;2.42;;;;;;;19.43;51.07;100093.88;5090290;28;20220;-69
2023/07/19 01:22:20;;;;;;;3.13;1.88;;;;;;;19.34;51.57;100085.66;5088594;28;20251;-70
2023/07/19 01:24:49;;;;;;;3.78;2.22;;;;;;;19.29;51.69;100089.34;5081048;28;20201;-69
2023/07/19 01:27:17;;;;;;;3.13;2.20;;;;;;;19.20;51.78;100084.53;5092659;28;20623;-70
2023/07/19 01:29:50;;;;;;;5.15;2.60;;;;;;;19.16;51.63;100087.34;5092489;28;20612;-70
2023/07/19 01:32:18;;;;;;;4.28;2.25;;;;;;;19.09;52.03;100086.78;5089572;28;20298;-69
2023/07/19 01:34:46;;;;;;;3.85;2.33;;;;;;;19.03;51.98;100082.66;5085655;28;20208;-69
2023/07/19 01:37:14;;;;;;;4.30;2.30;;;;;;;18.98;51.73;100089.03;5086943;28;20213;-69
2023/07/19 01:39:44;;;;;;;3.33;2.30;;;;;;;18.93;52.11;100091.88;5084719;28;20263;-70
2023/07/19 01:42:14;;;;;;;4.15;2.30;;;;;;;18.88;52.25;100092.97;5090138;28;20243;-70
2023/07/19 01:44:42;;;;;;;3.45;2.08;;;;;;;18.86;51.29;100092.22;5091462;28;20510;-69
2023/07/19 01:47:10;;;;;;;5.97;2.38;;;;;;;18.85;51.65;100095.72;5091695;28;20247;-69
2023/07/19 01:49:40;;;;;;;5.03;2.30;;;;;;;18.84;51.69;100089.66;5092301;28;20201;-70
2023/07/19 01:52:08;;;;;;;7.70;2.20;;;;;;;18.82;50.81;100089.75;5091662;28;20201;-70
2023/07/19 01:54:36;;;;;;;2.63;1.90;;;;;;;18.85;51.00;100093.94;5090938;28;20235;-69
2023/07/19 01:57:05;;;;;;;3.35;2.33;;;;;;;18.82;51.67;100094.97;5086916;28;20741;-68
2023/07/19 01:59:34;;;;;;;4.82;2.38;;;;;;;18.82;51.51;100088.91;5088824;28;20201;-70
2023/07/19 02:02:03;;;;;;;4.30;2.22;;;;;;;18.81;51.62;100093.28;5091060;28;20624;-69
2023/07/19 02:04:31;;;;;;;3.38;2.30;;;;;;;18.77;51.96;100085.63;5091301;28;20687;-70
2023/07/19 02:06:59;;;;;;;5.13;2.05;;;;;;;18.70;52.43;100085.00;5092300;28;20243;-70
2023/07/19 02:09:27;;;;;;;3.35;2.22;;;;;;;18.66;52.89;100086.06;5082954;28;20641;-73
2023/07/19 02:11:55;;;;;;;3.45;2.20;;;;;;;18.61;52.99;100082.81;5087471;28;20196;-72
2023/07/19 02:14:23;;;;;;;4.22;1.95;;;;;;;18.58;53.01;100085.56;5085695;28;20196;-72
2023/07/19 02:16:52;;;;;;;7.85;2.22;;;;;;;18.55;52.96;100085.69;5086124;28;20208;-73
2023/07/19 02:19:20;;;;;;;4.18;2.40;;;;;;;18.48;53.33;100084.25;5090030;28;20775;-72
2023/07/19 02:21:48;;;;;;;5.25;2.08;;;;;;;18.45;53.56;100084.41;5091498;28;20205;-71
2023/07/19 02:24:17;;;;;;;3.78;1.98;;;;;;;18.40;53.86;100082.00;5078128;28;20250;-72
2023/07/19 02:26:45;;;;;;;4.53;2.03;;;;;;;18.40;54.01;100096.78;5071536;28;20224;-71
2023/07/19 02:29:13;;;;;;;5.00;2.35;;;;;;;18.40;54.32;100092.41;5079961;28;20258;-70
2023/07/19 02:31:40;;;;;;;4.47;2.20;;;;;;;18.37;54.14;100089.94;5080078;28;20626;-71
2023/07/19 02:34:10;;;;;;;5.70;2.20;;;;;;;18.35;52.65;100090.03;5091790;28;20634;-71
2023/07/19 02:36:38;;;;;;;5.32;1.92;;;;;;;18.38;53.05;100083.84;5088988;28;20201;-71
2023/07/19 02:39:06;;;;;;;4.68;2.20;;;;;;;18.39;51.65;100079.47;5089709;28;20204;-73
2023/07/19 02:41:34;;;;;;;3.30;2.17;;;;;;;18.41;51.05;100080.22;5091563;28;20571;-72
2023/07/19 02:44:02;;;;;;;5.22;2.60;;;;;;;18.45;50.33;100085.25;5091431;28;20590;-72
2023/07/19 02:46:30;;;;;;;4.88;2.05;;;;;;;18.47;50.82;100082.56;5087990;28;20236;-72
2023/07/19 02:48:58;;;;;;;3.20;2.10;;;;;;;18.51;52.13;100079.75;5078081;28;20226;-71
2023/07/19 02:51:28;;;;;;;5.00;2.58;;;;;;;18.50;53.05;100082.44;5091314;28;20591;-72
2023/07/19 02:53:56;;;;;;;2.33;1.85;;;;;;;18.46;53.96;100083.50;5091356;28;20201;-72
2023/07/19 02:56:24;;;;;;;6.43;2.50;;;;;;;18.42;54.02;100089.75;5091154;28;20243;-71
2023/07/19 02:58:53;;;;;;;2.80;2.10;;;;;;;18.40;54.05;100086.38;5090334;28;20764;-72
2023/07/19 03:01:21;;;;;;;4.80;2.17;;;;;;;18.35;54.11;100086.56;5091597;28;20573;-72
2023/07/19 03:03:50;;;;;;;4.88;2.10;;;;;;;18.32;54.16;100074.50;5089614;28;20201;-72
2023/07/19 03:06:18;;;;;;;3.80;2.45;;;;;;;18.31;54.47;100077.19;5091590;28;20272;-71
2023/07/19 03:08:48;;;;;;;5.63;2.78;;;;;;;18.29;54.41;100074.63;5087892;28;20532;-72
2023/07/19 03:11:16;;;;;;;6.43;2.40;;;;;;;18.28;54.41;100077.31;5091048;28;20236;-71
2023/07/19 03:13:44;;;;;;;9.38;2.35;;;;;;;18.25;54.33;100067.84;5091117;28;20672;-72
2023/07/19 03:16:12;;;;;;;5.57;2.13;;;;;;;18.25;54.41;100067.84;5091363;28;20251;-72
2023/07/19 03:18:40;;;;;;;4.13;2.42;;;;;;;18.26;54.33;100074.78;5081357;28;20294;-71
2023/07/19 03:21:09;;;;;;;4.93;2.35;;;;;;;18.26;54.44;100061.75;5090162;28;20209;-72
2023/07/19 03:23:37;;;;;;;7.00;2.47;;;;;;;18.31;54.34;100059.75;5083449;28;20200;-71
2023/07/19 03:26:07;;;;;;;7.40;5.63;;;;;;;18.34;53.80;100070.06;5073982;28;20236;-72
2023/07/19 03:28:35;;;;;;;6.70;3.50;;;;;;;18.35;53.50;100069.16;5060475;28;20715;-71
2023/07/19 03:31:05;;;;;;;3.70;2.83;;;;;;;18.38;53.80;100068.19;5085662;28;20208;-71
2023/07/19 03:33:33;;;;;;;9.32;3.08;;;;;;;18.40;54.23;100057.66;5090075;28;20200;-70
2023/07/19 03:36:01;;;;;;;3.85;2.33;;;;;;;18.43;53.82;100060.16;5090845;28;20212;-72
2023/07/19 03:38:29;;;;;;;5.13;2.58;;;;;;;18.47;52.55;100059.94;5090734;28;20580;-74
2023/07/19 03:41:06;;;;;;;5.03;2.35;;;;;;;18.55;51.86;100059.59;5090769;28;20215;-71
2023/07/19 03:43:34;;;;;;;3.55;2.40;;;;;;;18.59;49.78;100056.81;5086853;28;20792;-73
2023/07/19 03:46:02;;;;;;;4.72;3.08;;;;;;;18.65;48.64;100060.88;5086903;28;20607;-72
2023/07/19 03:48:32;;;;;;;4.93;2.63;;;;;;;18.72;48.41;100054.50;5088515;28;20208;-72
2023/07/19 03:51:01;;;;;;;5.75;2.60;;;;;;;18.79;48.46;100063.75;5082175;28;20546;-71
2023/07/19 03:53:29;;;;;;;7.03;2.67;;;;;;;18.85;48.41;100052.19;5089656;28;20238;-71
2023/07/19 03:55:59;;;;;;;4.53;3.10;;;;;;;18.91;48.13;100056.28;5090720;28;20235;-71
2023/07/19 03:58:29;;;;;;;5.15;2.85;;;;;;;18.99;48.19;100056.78;5093765;28;20594;-72
2023/07/19 04:00:59;;;;;;;5.95;2.92;;;;;;;19.04;48.03;100058.28;5094512;28;20209;-72
2023/07/19 04:03:28;;;;;;;5.72;3.00;;;;;;;19.09;48.89;100055.44;5088200;28;20201;-71
2023/07/19 04:05:58;;;;;;;4.72;2.75;;;;;;;19.11;49.88;100050.13;5082603;28;20274;-72
2023/07/19 04:08:27;;;;;;;4.82;2.97;;;;;;;19.13;50.64;100061.38;5076043;28;20203;-70
2023/07/19 04:10:55;;;;;;;6.85;2.80;;;;;;;19.14;50.77;100057.84;5094001;28;20560;-71
2023/07/19 04:13:23;;;;;;;4.70;2.83;;;;;;;19.14;51.15;100050.84;5088434;28;20713;-72
2023/07/19 04:15:52;;;;;;;6.20;2.85;;;;;;;19.16;51.43;100051.63;5094039;28;20698;-73
2023/07/19 04:18:21;;;;;;;6.40;2.65;;;;;;;19.23;51.35;100047.81;5093682;28;20213;-70
2023/07/19 04:20:54;;;;;;;5.72;2.67;;;;;;;19.40;50.67;100051.38;5091191;28;20205;-71
2023/07/19 04:23:22;;;;;;;5.72;2.80;;;;;;;19.54;50.35;100044.56;5091700;28;20645;-72
2023/07/19 04:25:51;;;;;;;3.53;2.92;;;;;;;19.70;50.11;100042.09;5081955;28;20615;-71
2023/07/19 04:28:19;;;;;;;5.05;2.70;;;;;;;19.89;49.44;100039.41;5078036;28;20580;-72
2023/07/19 04:30:47;;;;;;;5.47;3.17;;;;;;;20.12;48.07;100048.69;5073715;28;20205;-72
2023/07/19 04:33:18;;;;;;;4.18;3.08;;;;;;;20.34;47.18;100042.38;5085641;28;20199;-71
2023/07/19 04:35:47;;;;;;;6.68;3.40;;;;;;;20.54;46.44;100039.56;5082598;28;20201;-69
2023/07/19 04:38:16;;;;;;;5.40;2.78;;;;;;;20.73;45.25;100036.84;5080066;28;20304;-72
2023/07/19 04:40:44;;;;;;;4.00;2.70;;;;;;;20.93;44.65;100041.00;5084311;28;20201;-71
2023/07/19 04:43:14;;;;;;;5.53;2.70;;;;;;;21.11;44.07;100033.91;5093893;28;20204;-72
2023/07/19 04:45:43;;;;;;;3.97;2.92;;;;;;;21.31;43.47;100045.88;5097104;28;20253;-71
2023/07/19 04:48:11;;;;;;;4.70;3.30;;;;;;;21.48;42.89;100047.59;5082428;28;20296;-71
2023/07/19 04:50:41;;;;;;;7.88;3.15;;;;;;;21.62;43.00;100039.78;5088172;28;20209;-72
2023/07/19 04:53:09;;;;;;;6.47;3.03;;;;;;;21.78;42.53;100037.97;5089479;28;20208;-71
2023/07/19 04:55:37;;;;;;;4.20;2.60;;;;;;;21.89;42.14;100039.97;5090381;28;20551;-72
2023/07/19 04:58:07;;;;;;;3.53;2.70;;;;;;;22.07;41.70;100040.66;5092839;28;20250;-71
2023/07/19 05:00:35;;;;;;;4.25;2.97;;;;;;;22.25;41.17;100033.50;5088974;28;20582;-71
2023/07/19 05:03:04;;;;;;;4.90;2.72;;;;;;;22.46;40.66;100031.34;5094092;28;20250;-72
2023/07/19 05:05:32;;;;;;;5.85;2.88;;;;;;;22.80;40.13;100020.47;5093466;28;20603;-72
2023/07/19 05:08:04;;;;;;;4.95;2.92;;;;;;;23.65;38.61;100028.22;5092851;28;20204;-72
2023/07/19 05:10:32;;;;;;;4.60;2.63;;;;;;;24.92;35.71;100019.50;5092019;28;20659;-72
2023/07/19 05:13:00;;;;;;;4.00;2.40;;;;;;;25.85;33.44;100022.38;5090746;28;20561;-71
2023/07/19 05:15:28;;;;;;;3.33;2.33;;;;;;;26.36;31.47;100019.34;5090278;28;20299;-70
2023/07/19 05:17:56;;;;;;;4.57;2.15;;;;;;;26.69;30.80;100024.66;5093152;28;20622;-73
2023/07/19 05:20:26;;;;;;;3.22;2.00;;;;;;;26.87;30.43;100018.88;5093742;28;20299;-71
2023/07/19 05:22:54;;;;;;;4.90;2.42;;;;;;;27.28;29.99;100020.00;5088800;28;20228;-73
2023/07/19 05:25:23;;;;;;;4.68;1.85;;;;;;;27.37;29.33;100016.63;5083649;28;20620;-72
2023/07/19 05:27:52;;;;;;;3.38;2.20;;;;;;;27.73;29.42;100017.16;5069799;28;20243;-71
2023/07/19 05:30:21;;;;;;;3.63;1.80;;;;;;;29.31;26.80;100010.50;5085787;28;20568;-71
2023/07/19 05:32:49;;;;;;;6.00;2.00;;;;;;;31.35;24.20;100009.00;5087713;28;20597;-72
2023/07/19 05:35:18;;;;;;;6.07;2.38;;;;;;;33.46;21.10;100007.59;5072524;28;20220;-71
2023/07/19 05:37:46;;;;;;;5.45;2.08;;;;;;;35.29;18.74;100003.03;5099257;28;20201;-72
2023/07/19 05:40:14;;;;;;;2.15;1.70;;;;;;;36.91;16.83;100001.50;5092431;28;20227;-69
2023/07/19 05:42:43;;;;;;;2.13;1.70;;;;;;;38.26;15.70;100000.63;5091137;28;20205;-74
2023/07/19 05:45:11;;;;;;;4.28;2.08;;;;;;;39.21;14.81;100001.59;5092600;28;20544;-67
2023/07/19 05:47:39;;;;;;;4.28;2.30;;;;;;;39.82;13.98;99998.75;5091898;28;20192;-70
2023/07/19 05:50:09;;;;;;;3.38;2.22;;;;;;;40.25;13.88;100000.97;5081987;28;20193;-62
2023/07/19 05:52:37;;;;;;;4.18;2.30;;;;;;;40.78;13.50;99998.06;5090169;28;20203;-72
2023/07/19 05:55:06;;;;;;;4.57;2.40;;;;;;;41.19;13.25;99999.47;5084029;28;20204;-74
2023/07/19 05:57:34;;;;;;;5.68;2.50;;;;;;;41.60;12.58;99990.03;5074384;28;20200;-73
2023/07/19 06:00:11;;;;;;;3.83;2.60;;;;;;;42.08;12.13;100002.88;5091072;28;20208;-71
2023/07/19 06:02:48;;;;;;;3.65;1.75;;;;;;;42.46;12.01;99993.75;5089497;28;20608;-72
2023/07/19 06:05:24;;;;;;;3.67;1.90;;;;;;;42.93;11.22;99994.75;5089695;28;20283;-74
2023/07/19 06:07:52;;;;;;;4.60;1.75;;;;;;;42.77;10.98;99994.59;5092583;28;20203;-70
2023/07/19 06:10:20;;;;;;;8.85;2.13;;;;;;;42.56;11.47;99996.72;5085033;28;20188;-73
2023/07/19 06:12:49;;;;;;;7.18;2.10;;;;;;;42.72;11.16;99997.16;5090575;28;20207;-74
2023/07/19 06:15:20;;;;;;;5.70;1.50;;;;;;;43.03;10.89;99988.78;5082191;28;20218;-76
2023/07/19 06:17:48;;;;;;;3.13;1.50;;;;;;;43.19;10.43;99990.00;5088347;28;20224;-79
2023/07/19 06:20:17;;;;;;;4.07;1.25;;;;;;;43.05;10.66;99986.69;5091134;28;20648;-77
2023/07/19 06:22:45;;;;;;;2.35;1.50;;;;;;;43.20;10.43;99982.72;5091826;28;20613;-77
2023/07/19 06:25:14;;;;;;;4.18;1.60;;;;;;;43.42;10.31;99981.09;5093207;28;20207;-77
2023/07/19 06:27:43;;;;;;;2.47;1.60;;;;;;;43.94;9.76;99986.69;5093123;28;20232;-74
2023/07/19 06:30:13;;;;;;;3.17;1.38;;;;;;;44.00;10.19;99977.56;5087969;28;20748;-76
2023/07/19 06:32:42;;;;;;;2.80;1.40;;;;;;;44.12;9.88;99974.84;5091123;28;20210;-75
2023/07/19 06:35:11;;;;;;;3.08;1.60;;;;;;;44.17;9.88;99966.78;5090623;28;20667;-76
2023/07/19 06:37:39;;;;;;;2.42;1.55;;;;;;;44.29;9.70;99972.22;5089646;28;20602;-75
2023/07/19 06:40:08;;;;;;;2.97;1.50;;;;;;;44.30;9.62;99966.56;5088530;28;20250;-78
2023/07/19 06:42:37;;;;;;;3.58;1.88;;;;;;;44.09;9.68;99965.28;5087497;28;20226;-79
2023/07/19 06:45:06;;;;;;;2.88;1.70;;;;;;;44.08;9.65;99966.34;5094882;28;20907;-75
2023/07/19 06:47:34;;;;;;;3.10;1.50;;;;;;;44.12;10.07;99966.69;5094726;28;20259;-80
2023/07/19 06:50:04;;;;;;;3.92;1.73;;;;;;;43.91;10.07;99967.34;5093281;28;20578;-79
2023/07/19 06:52:32;;;;;;;3.20;1.50;;;;;;;43.88;9.72;99963.19;5094870;28;20224;-76
2023/07/19 06:55:00;;;;;;;1.83;1.40;;;;;;;43.66;10.03;99971.09;5094139;28;20678;-76
2023/07/19 06:57:28;;;;;;;4.38;1.75;;;;;;;43.80;9.35;99963.53;5089042;28;20271;-76
2023/07/19 06:59:56;;;;;;;1.40;1.30;;;;;;;43.99;9.44;99962.34;5089704;28;20585;-80
2023/07/19 07:02:25;;;;;;;2.78;1.27;;;;;;;43.92;9.27;99969.78;5091875;28;20310;-80
2023/07/19 07:04:53;;;;;;;3.17;1.60;;;;;;;44.07;9.50;99959.25;5088574;28;20632;-80
2023/07/19 07:07:24;;;;;;;1.25;1.15;;;;;;;44.07;9.39;99961.16;5084078;28;20257;-78
2023/07/19 07:09:53;;;;;;;3.55;1.40;;;;;;;44.20;9.20;99962.78;5091942;28;20228;-79
2023/07/19 07:12:21;;;;;;;2.00;1.38;;;;;;;44.45;9.45;99962.50;5095127;28;20208;-79
2023/07/19 07:14:51;;;;;;;2.53;1.67;;;;;;;44.52;9.09;99964.00;5093204;28;20231;-80
2023/07/19 07:17:20;;;;;;;3.03;1.33;;;;;;;44.30;9.53;99960.28;5097071;28;20589;-79
2023/07/19 07:19:50;;;;;;;2.35;1.17;;;;;;;43.86;9.47;99951.72;5096322;28;20265;-79
2023/07/19 07:22:19;;;;;;;1.75;1.40;;;;;;;44.05;9.20;99958.69;5094543;28;20241;-79
2023/07/19 07:24:48;;;;;;;3.15;1.30;;;;;;;44.48;9.40;99961.97;5082354;28;20199;-80
2023/07/19 07:27:16;;;;;;;7.32;1.25;;;;;;;44.21;9.62;99957.09;5094598;28;20262;-80
2023/07/19 07:29:45;;;;;;;1.70;1.25;;;;;;;44.16;9.46;99957.00;5085673;28;21155;-67
2023/07/19 07:32:13;;;;;;;1.95;1.27;;;;;;;44.15;8.90;99949.06;5085646;28;20210;-77
2023/07/19 07:34:41;;;;;;;2.22;1.38;;;;;;;43.97;9.27;99942.75;5094582;28;20268;-74
2023/07/19 07:37:09;;;;;;;4.00;1.15;;;;;;;44.28;8.80;99946.94;5066053;28;20551;-69
2023/07/19 07:39:37;;;;;;;2.10;1.30;;;;;;;44.11;9.13;99935.97;5095753;28;20208;-78
2023/07/19 07:42:09;;;;;;;2.55;1.00;;;;;;;44.41;9.12;99939.56;5094016;28;20211;-76
2023/07/19 07:44:37;;;;;;;2.33;1.08;;;;;;;44.56;8.66;99942.59;5093855;28;20209;-75
2023/07/19 07:47:05;;;;;;;3.65;1.13;;;;;;;44.56;8.87;99942.59;5095698;28;20196;-78
2023/07/19 07:49:33;;;;;;;2.65;1.30;;;;;;;44.17;8.79;99931.47;5096496;28;20192;-78
2023/07/19 07:52:03;;;;;;;1.92;1.30;;;;;;;43.84;9.27;99940.28;5088989;28;20279;-79
2023/07/19 07:54:31;;;;;;;2.53;1.20;;;;;;;43.43;9.13;99933.91;5092001;28;20286;-78
2023/07/19 07:56:59;;;;;;;4.00;1.13;;;;;;;42.58;9.43;99928.75;5089222;28;20204;-77
2023/07/19 07:59:29;;;;;;;1.95;0.90;;;;;;;42.52;9.92;99933.19;5092856;28;20214;-78
2023/07/19 08:01:57;;;;;;;2.55;1.35;;;;;;;42.53;9.93;99923.19;5092233;28;20212;-79
2023/07/19 08:04:31;;;;;;;2.28;1.00;;;;;;;42.14;9.85;99917.22;5095228;28;20265;-78
2023/07/19 08:06:59;;;;;;;3.05;1.10;;;;;;;41.36;10.51;99912.41;5094217;28;20204;-78
2023/07/19 08:09:28;;;;;;;3.35;1.10;;;;;;;40.27;11.33;99919.75;5092697;28;20246;-77
2023/07/19 08:11:57;;;;;;;2.83;1.40;;;;;;;38.50;12.78;99918.53;5100399;28;20201;-79
2023/07/19 08:14:26;;;;;;;5.70;1.65;;;;;;;36.45;14.38;99907.81;5096131;28;20602;-78
2023/07/19 08:16:56;;;;;;;2.97;1.10;;;;;;;34.60;15.54;99908.41;5099591;28;20262;-77
2023/07/19 08:19:28;;;;;;;1.60;1.05;;;;;;;32.88;17.18;99915.88;5099859;28;20196;-78
2023/07/19 08:22:06;;;;;;;1.80;1.20;;;;;;;31.12;18.70;99918.94;5098409;28;20204;-78
2023/07/19 08:24:34;;;;;;;2.58;1.30;;;;;;;30.27;19.83;99914.88;5094658;28;20205;-78
2023/07/19 08:27:03;;;;;;;3.05;1.10;;;;;;;29.89;20.07;99913.16;5077382;28;20232;-78
2023/07/19 08:29:31;;;;;;;2.35;1.40;;;;;;;29.62;20.72;99904.16;5077013;28;20614;-76
2023/07/19 08:32:03;;;;;;;3.05;0.90;;;;;;;29.64;20.99;99909.31;5086951;28;20284;-77
2023/07/19 08:34:32;;;;;;;2.50;1.20;;;;;;;29.76;21.11;99898.38;5069496;28;20237;-75
2023/07/19 08:37:01;;;;;;;3.08;1.17;;;;;;;29.65;20.79;99893.25;5096418;28;20212;-78
2023/07/19 08:39:29;;;;;;;1.30;1.08;;;;;;;29.69;20.68;99899.94;5083212;28;20208;-79
2023/07/19 08:42:00;;;;;;;1.35;1.00;;;;;;;29.89;20.96;99898.06;5101829;28;20231;-76
2023/07/19 08:44:28;;;;;;;1.70;1.17;;;;;;;30.13;20.78;99888.75;5099527;28;20211;-79
2023/07/19 08:47:04;;;;;;;1.95;1.10;;;;;;;30.28;20.49;99887.28;5093489;28;20201;-76
2023/07/19 08:49:37;;;;;;;3.17;1.20;;;;;;;30.25;20.88;99883.09;5094459;28;20268;-77
2023/07/19 08:52:09;;;;;;;3.22;1.27;;;;;;;30.14;20.34;99885.09;5093531;28;20635;-79
2023/07/19 08:54:37;;;;;;;1.27;0.90;;;;;;;29.98;20.91;99881.25;5085593;28;20212;-77
2023/07/19 08:57:06;;;;;;;1.42;0.93;;;;;;;29.83;20.70;99875.56;5086056;28;20557;-81
2023/07/19 08:59:35;;;;;;;3.03;1.20;;;;;;;29.62;20.89;99880.25;5084172;28;20672;-77
2023/07/19 09:02:05;;;;;;;1.27;0.93;;;;;;;29.46;20.92;99870.22;5088373;28;20229;-78
2023/07/19 09:04:33;;;;;;;3.65;1.27;;;;;;;29.32;20.53;99868.84;5086440;28;20273;-78
2023/07/19 09:07:04;;;;;;;3.72;1.27;;;;;;;29.13;20.99;99863.56;5056867;28;20205;-79
2023/07/19 09:09:34;;;;;;;2.28;1.10;;;;;;;29.02;21.07;99856.59;5088645;28;20200;-78
2023/07/19 09:12:08;;;;;;;2.33;0.98;;;;;;;28.88;21.42;99860.47;5089382;28;20209;-77
2023/07/19 09:14:37;;;;;;;1.85;1.15;;;;;;;28.80;21.72;99860.34;5089353;28;20716;-78
2023/07/19 09:17:07;;;;;;;2.38;1.20;;;;;;;28.71;21.89;99858.50;5096613;28;20212;-79
2023/07/19 09:19:38;;;;;;;1.70;1.00;;;;;;;28.76;22.14;99864.25;5082140;28;20200;-76
2023/07/19 09:22:09;;;;;;;1.40;0.95;;;;;;;28.86;21.68;99867.72;5092969;28;20223;-78
2023/07/19 09:24:54;;;;;;;3.53;1.02;;;;;;;28.96;22.31;99866.88;5090272;28;20680;-79
2023/07/19 09:27:25;;;;;;;2.15;1.08;;;;;;;28.93;21.49;99865.34;5077814;28;20254;-80
2023/07/19 09:29:53;;;;;;;3.22;1.13;;;;;;;28.82;21.29;99849.56;5061414;28;20213;-78
2023/07/19 09:32:24;;;;;;;3.95;1.30;;;;;;;28.87;21.81;99855.31;5087350;28;20223;-76
2023/07/19 09:34:55;;;;;;;1.42;1.05;;;;;;;29.09;21.79;99847.09;5090447;28;20197;-77
2023/07/19 09:37:25;;;;;;;4.05;1.05;;;;;;;29.39;21.95;99844.38;5089350;28;20532;-77
2023/07/19 09:40:03;;;;;;;3.00;1.02;;;;;;;29.60;20.83;99842.38;5093153;28;20933;-79
2023/07/19 09:42:36;;;;;;;1.05;0.80;;;;;;;29.90;20.91;99845.75;5090596;28;20239;-77
2023/07/19 09:45:06;;;;;;;1.35;0.80;;;;;;;30.29;20.30;99839.28;5089275;28;20219;-76
2023/07/19 09:47:36;;;;;;;1.77;1.08;;;;;;;30.54;19.04;99829.72;5089867;28;20205;-77
2023/07/19 09:50:06;;;;;;;3.45;0.93;;;;;;;30.85;18.81;99834.69;5077615;28;20210;-76
2023/07/19 09:52:39;;;;;;;2.10;1.17;;;;;;;31.13;18.80;99832.75;5074955;28;20193;-76
2023/07/19 09:55:07;;;;;;;1.70;1.10;;;;;;;31.53;18.60;99828.72;5072847;28;20216;-77
2023/07/19 09:57:38;;;;;;;0.82;0.82;;;;;;;32.29;17.70;99824.38;5075150;28;20197;-75
2023/07/19 10:00:09;;;;;;;1.58;1.20;;;;;;;32.57;16.99;99824.97;5089265;28;20204;-78
2023/07/19 10:02:38;;;;;;;4.35;1.05;;;;;;;32.86;17.16;99821.81;5074817;28;20206;-77
2023/07/19 10:05:08;;;;;;;2.38;0.90;;;;;;;33.04;16.71;99817.16;5092322;28;20228;-78
2023/07/19 10:07:38;;;;;;;1.23;1.00;;;;;;;33.37;16.38;99815.28;5074087;28;20666;-77
2023/07/19 10:10:19;;;;;;;4.38;0.90;;;;;;;33.93;15.82;99804.56;5073511;28;20211;-76
2023/07/19 10:12:50;;;;;;;1.42;1.13;;;;;;;34.58;16.04;99790.84;5089696;28;20200;-75
2023/07/19 10:15:22;;;;;;;2.13;1.30;;;;;;;35.59;15.03;99777.19;5089532;28;20250;-72
2023/07/19 10:17:59;;;;;;;1.77;1.13;;;;;;;36.37;14.35;99794.38;5088174;28;20222;-72
2023/07/19 10:20:31;;;;;;;2.58;1.30;;;;;;;36.61;13.95;99794.03;5083427;28;20226;-72
2023/07/19 10:23:03;;;;;;;1.02;0.90;;;;;;;37.18;13.41;99782.31;5087494;28;20237;-73
2023/07/19 10:25:33;;;;;;;1.73;1.05;;;;;;;37.71;12.56;99774.56;5084749;28;20367;-72
2023/07/19 10:28:07;;;;;;;2.83;1.30;;;;;;;38.28;13.39;99777.03;5085357;28;20609;-70
2023/07/19 10:30:50;;;;;;;1.70;0.90;;;;;;;38.88;12.06;99765.28;5073760;28;20717;-70
2023/07/19 10:33:22;;;;;;;1.17;1.10;;;;;;;38.90;12.08;99760.50;5083138;28;20296;-71
2023/07/19 10:35:51;;;;;;;2.10;1.10;;;;;;;38.91;12.51;99758.66;5084781;28;20625;-73
2023/07/19 10:38:22;;;;;;;1.20;1.10;;;;;;;37.73;12.97;99760.91;5081913;28;20205;-69
2023/07/19 10:40:56;;;;;;;1.48;1.02;;;;;;;36.82;13.77;99757.44;5083794;28;20614;-71
2023/07/19 10:43:24;;;;;;;2.35;1.10;;;;;;;36.87;13.37;99749.63;5077877;28;20251;-70
2023/07/19 10:46:12;;;;;;;2.15;1.30;;;;;;;37.17;13.67;99739.53;5079662;28;20283;-72
2023/07/19 10:48:43;;;;;;;1.63;1.17;;;;;;;37.11;13.44;99740.31;5072460;28;20672;-71
2023/07/19 10:51:11;;;;;;;2.78;1.35;;;;;;;36.96;13.11;99735.88;5084669;28;20239;-71
2023/07/19 10:53:56;;;;;;;2.72;1.20;;;;;;;36.08;13.93;99736.31;5086583;28;20202;-71
2023/07/19 10:56:26;;;;;;;1.55;1.10;;;;;;;34.66;15.29;99743.63;5079433;28;20204;-71
2023/07/19 10:58:59;;;;;;;2.88;1.05;;;;;;;34.01;15.91;99734.22;5081846;28;20245;-71
2023/07/19 11:01:30;;;;;;;1.90;1.30;;;;;;;33.99;16.17;99725.56;5079514;28;20325;-71
2023/07/19 11:04:04;;;;;;;1.33;1.10;;;;;;;34.25;16.15;99725.19;5075423;28;20211;-71
2023/07/19 11:06:35;;;;;;;6.20;1.50;;;;;;;34.40;16.36;99722.56;5088086;28;20709;-72
2023/07/19 11:09:05;;;;;;;2.88;1.05;;;;;;;34.06;16.40;99726.47;5084457;28;20219;-74
2023/07/19 11:11:39;;;;;;;10.23;1.38;;;;;;;33.67;17.16;99733.53;5086348;28;20283;-71
2023/07/19 11:14:09;;;;;;;3.50;1.40;;;;;;;33.57;16.29;99726.72;5079802;28;20197;-71
2023/07/19 11:16:38;;;;;;;4.30;1.40;;;;;;;33.83;16.79;99710.38;5083177;28;20227;-71
2023/07/19 11:19:10;;;;;;;2.58;1.25;;;;;;;33.45;17.31;99722.75;5080127;28;20302;-71
2023/07/19 11:21:44;;;;;;;1.20;1.10;;;;;;;32.56;18.59;99733.44;5085920;28;20223;-70
2023/07/19 11:24:12;;;;;;;2.80;1.17;;;;;;;31.91;19.26;99731.47;5086652;28;20295;-71
2023/07/19 11:26:53;;;;;;;1.90;1.20;;;;;;;31.40;19.38;99725.28;5076514;28;20256;-72
2023/07/19 11:29:22;;;;;;;4.88;1.30;;;;;;;31.13;19.74;99728.94;5070846;28;20201;-70
2023/07/19 11:31:50;;;;;;;3.80;1.27;;;;;;;30.83;19.82;99726.78;5086090;28;20200;-71
2023/07/19 11:34:20;;;;;;;1.42;1.10;;;;;;;30.31;19.85;99722.19;5081393;28;20277;-73
2023/07/19 11:36:48;;;;;;;1.48;1.33;;;;;;;29.95;19.92;99732.75;5079163;28;20288;-72
2023/07/19 11:39:17;;;;;;;1.67;1.13;;;;;;;29.58;20.11;99723.03;5079372;28;20258;-71